KNUCKPSP

Guest
Details From KNUC - San Clemente Island Nalf
To KPSP - Palm Springs Intl
Flight Number -
Tags generated
Created
Modified
Stats Distance 115 nm / 213 km
Max Altitude 4,300 ft / 1,311 m
Waypoints 3
Social Downloads 1
Likes 0
Share VATSIM

Download

Looking for another format? Having issues loading an existing format? Contact us
Advertisement - Login to hide

Notes

Basic altitude profile: - Ascent Rate: 2500ft/min - Ascent Speed: 250kts - Cruise Altitude: 12ft - Cruise Speed: 420kts - Descent Rate: 1500ft/min - Descent Speed: 250kts Options: - Use NATs: yes - Use PACOTS: yes - Use low airways: yes - Use high airways: yes

Route

KNUC HEMET KPSP

ID Type Via Altitude (ft/m) Position (lat/lon) Dist (leg/tot) Name
O KNUC APT - 0 / 0 33.02274 / -118.58849 - / 0 nm San Clemente Island Nalf
HEMET FIX - 4,300 / 1,311 33.69049 / -116.87905 94 / 94 nm
O KPSP APT - 0 / 0 33.82968 / -116.50622 20 / 115 nm Palm Springs Intl

Altitude Profile

Advertisement - Login to hide

KNUC

Details ICAO KNUC
Name San Clemente Island NALF
Region United States
Timezone America/Los_Angeles (UTC-7.0)
Stats Elevation 183 ft / 56 m (AMSL)
Location 33.023000° -118.588000°
Runways 1
Magnetic Variation 11.794° E

METAR

KNUC 230951Z AUTO 26007KT OVC010 17/16 A2990 RMK AO2 $

Decode

TAF

Not found

Departure Runways

ID Width Length Bearing (true/mag) Surface Threshold Overrun Markings Lighting
06 180 ft / 55 m 9,304 ft / 2,836 m 67.20° / 55.41° CONCRETE 0 ft / 0 m 0 ft / 0 m VISUAL EDGE THRESHOLD REIL-OMNI
24 180 ft / 55 m 9,304 ft / 2,836 m 247.22° / 235.42° CONCRETE 0 ft / 0 m 0 ft / 0 m PREC-APP EDGE THRESHOLD REIL-OMNI

KPSP

Details ICAO KPSP (PSP)
Name Palm Springs Intl
Region United States
Timezone America/Los_Angeles (UTC-7.0)
Stats Elevation 477 ft / 145 m (AMSL)
Location 33.829700° -116.506000°
Runways 2
Magnetic Variation 11.512° E

METAR

KPSP 230953Z AUTO 32005KT 10SM CLR 31/09 A2977 RMK AO2 SLP077 T03060094

Decode

TAF

TAF KPSP 230520Z 2306/2406 33008KT P6SM SKC FM231700 14007KT P6SM SKC FM240000 33012G18KT P6SM SKC

Decode

Destination Runways

ID Width Length Bearing (true/mag) Surface Threshold Overrun Markings Lighting
13L 75 ft / 23 m 4,958 ft / 1,511 m 143.52° / 132.01° ASPHALT 0 ft / 0 m 151 ft / 46 m APP CENTERLINE EDGE THRESHOLD ALSF-I REIL-OMNI
13R 151 ft / 46 m 10,009 ft / 3,051 m 143.51° / 132.00° ASPHALT 3,002 ft / 915 m 200 ft / 61 m PREC-APP CENTERLINE EDGE THRESHOLD ALSF-I REIL-OMNI
31L 151 ft / 46 m 10,009 ft / 3,051 m 323.52° / 312.01° ASPHALT 1,499 ft / 457 m 200 ft / 61 m PREC-APP CENTERLINE EDGE THRESHOLD ALSF-I REIL-OMNI
31R 75 ft / 23 m 4,958 ft / 1,511 m 323.52° / 312.01° ASPHALT 0 ft / 0 m 148 ft / 45 m APP CENTERLINE EDGE THRESHOLD ALSF-I REIL-OMNI

Popular Alternatives